sensor_id;sensor_type;location;lat;lon;timestamp;temperature;humidity
70928;SHT31;58587;53.034;18.576;2023-04-16T09:40:01;9.72;88.40
70928;SHT31;58587;53.034;18.576;2023-04-16T09:42:30;9.78;88.62
70928;SHT31;58587;53.034;18.576;2023-04-16T09:44:57;9.80;88.69
70928;SHT31;58587;53.034;18.576;2023-04-16T09:47:24;9.80;88.05
70928;SHT31;58587;53.034;18.576;2023-04-16T09:49:49;9.89;88.06
70928;SHT31;58587;53.034;18.576;2023-04-16T09:52:17;9.96;87.96
70928;SHT31;58587;53.034;18.576;2023-04-16T09:54:51;10.02;87.18
70928;SHT31;58587;53.034;18.576;2023-04-16T09:57:21;10.00;87.30
70928;SHT31;58587;53.034;18.576;2023-04-16T09:59:47;10.06;87.40
70928;SHT31;58587;53.034;18.576;2023-04-16T10:02:13;10.10;87.16
70928;SHT31;58587;53.034;18.576;2023-04-16T10:04:50;10.14;86.50
70928;SHT31;58587;53.034;18.576;2023-04-16T10:07:16;10.17;86.57
70928;SHT31;58587;53.034;18.576;2023-04-16T10:09:42;10.18;86.88
70928;SHT31;58587;53.034;18.576;2023-04-16T10:12:07;10.17;86.41
70928;SHT31;58587;53.034;18.576;2023-04-16T10:14:33;10.20;86.25
70928;SHT31;58587;53.034;18.576;2023-04-16T10:16:59;10.16;86.31
70928;SHT31;58587;53.034;18.576;2023-04-16T10:19:26;10.16;86.38
70928;SHT31;58587;53.034;18.576;2023-04-16T10:21:52;10.18;86.45
70928;SHT31;58587;53.034;18.576;2023-04-16T10:24:18;10.24;86.33
70928;SHT31;58587;53.034;18.576;2023-04-16T10:26:44;10.21;85.85
70928;SHT31;58587;53.034;18.576;2023-04-16T10:29:11;10.21;86.16
70928;SHT31;58587;53.034;18.576;2023-04-16T10:31:37;10.25;85.90
70928;SHT31;58587;53.034;18.576;2023-04-16T10:34:04;10.30;86.07
70928;SHT31;58587;53.034;18.576;2023-04-16T10:36:35;10.29;85.57
70928;SHT31;58587;53.034;18.576;2023-04-16T10:39:00;10.27;85.55
70928;SHT31;58587;53.034;18.576;2023-04-16T10:41:26;10.29;85.35
70928;SHT31;58587;53.034;18.576;2023-04-16T10:43:52;10.37;85.44
70928;SHT31;58587;53.034;18.576;2023-04-16T10:46:26;10.34;85.45
70928;SHT31;58587;53.034;18.576;2023-04-16T10:48:55;10.36;85.51
70928;SHT31;58587;53.034;18.576;2023-04-16T10:53:56;10.37;85.41
70928;SHT31;58587;53.034;18.576;2023-04-16T10:56:25;10.34;85.28
70928;SHT31;58587;53.034;18.576;2023-04-16T10:58:53;10.40;85.82
70928;SHT31;58587;53.034;18.576;2023-04-16T11:01:32;10.38;85.92
70928;SHT31;58587;53.034;18.576;2023-04-16T11:03:59;10.37;85.58
70928;SHT31;58587;53.034;18.576;2023-04-16T11:06:26;10.30;85.58
70928;SHT31;58587;53.034;18.576;2023-04-16T11:08:52;10.27;85.66
70928;SHT31;58587;53.034;18.576;2023-04-16T11:11:18;10.25;85.82
70928;SHT31;58587;53.034;18.576;2023-04-16T11:13:44;10.25;85.91
70928;SHT31;58587;53.034;18.576;2023-04-16T11:16:11;10.20;85.70
70928;SHT31;58587;53.034;18.576;2023-04-16T11:18:37;10.14;85.59
70928;SHT31;58587;53.034;18.576;2023-04-16T11:21:07;10.17;86.09
70928;SHT31;58587;53.034;18.576;2023-04-16T11:23:53;10.13;86.01
70928;SHT31;58587;53.034;18.576;2023-04-16T11:26:28;10.06;85.82
70928;SHT31;58587;53.034;18.576;2023-04-16T11:28:55;10.06;85.80
70928;SHT31;58587;53.034;18.576;2023-04-16T11:31:22;10.10;86.09
70928;SHT31;58587;53.034;18.576;2023-04-16T11:33:48;10.06;86.49
70928;SHT31;58587;53.034;18.576;2023-04-16T11:36:13;10.02;86.34
70928;SHT31;58587;53.034;18.576;2023-04-16T11:38:39;10.07;86.71
70928;SHT31;58587;53.034;18.576;2023-04-16T11:41:08;10.13;86.62
70928;SHT31;58587;53.034;18.576;2023-04-16T11:43:35;10.13;86.46
70928;SHT31;58587;53.034;18.576;2023-04-16T11:46:02;10.09;86.23
70928;SHT31;58587;53.034;18.576;2023-04-16T11:48:47;10.16;86.38
70928;SHT31;58587;53.034;18.576;2023-04-16T11:51:13;10.09;85.86
70928;SHT31;58587;53.034;18.576;2023-04-16T11:53:49;10.13;86.21
70928;SHT31;58587;53.034;18.576;2023-04-16T11:56:14;10.09;86.36
70928;SHT31;58587;53.034;18.576;2023-04-16T11:58:41;10.11;86.35
70928;SHT31;58587;53.034;18.576;2023-04-16T12:01:07;10.04;86.16
70928;SHT31;58587;53.034;18.576;2023-04-16T12:03:40;10.04;86.47
70928;SHT31;58587;53.034;18.576;2023-04-16T12:06:09;10.03;86.41
70928;SHT31;58587;53.034;18.576;2023-04-16T12:08:35;10.06;86.47
70928;SHT31;58587;53.034;18.576;2023-04-16T12:11:06;10.09;86.29
70928;SHT31;58587;53.034;18.576;2023-04-16T12:14:10;10.04;86.52
70928;SHT31;58587;53.034;18.576;2023-04-16T12:16:36;10.06;86.54
70928;SHT31;58587;53.034;18.576;2023-04-16T12:19:05;10.07;86.38
70928;SHT31;58587;53.034;18.576;2023-04-16T12:21:45;10.03;85.66
70928;SHT31;58587;53.034;18.576;2023-04-16T12:24:23;10.02;86.47
70928;SHT31;58587;53.034;18.576;2023-04-16T12:26:54;10.00;86.03
70928;SHT31;58587;53.034;18.576;2023-04-16T12:29:23;9.99;86.38
70928;SHT31;58587;53.034;18.576;2023-04-16T12:31:49;10.02;86.10
70928;SHT31;58587;53.034;18.576;2023-04-16T12:34:16;10.04;86.41
70928;SHT31;58587;53.034;18.576;2023-04-16T12:36:43;10.07;86.39
70928;SHT31;58587;53.034;18.576;2023-04-16T12:39:09;10.06;86.74
70928;SHT31;58587;53.034;18.576;2023-04-16T12:41:40;10.07;86.45
70928;SHT31;58587;53.034;18.576;2023-04-16T12:44:07;10.04;86.46
70928;SHT31;58587;53.034;18.576;2023-04-16T12:46:36;10.09;86.46
70928;SHT31;58587;53.034;18.576;2023-04-16T12:49:02;10.07;86.20
70928;SHT31;58587;53.034;18.576;2023-04-16T12:51:27;10.04;85.99
70928;SHT31;58587;53.034;18.576;2023-04-16T12:53:53;10.09;86.46
70928;SHT31;58587;53.034;18.576;2023-04-16T12:56:19;10.11;86.44
70928;SHT31;58587;53.034;18.576;2023-04-16T12:58:44;10.06;86.45
70928;SHT31;58587;53.034;18.576;2023-04-16T13:01:09;10.07;86.30
70928;SHT31;58587;53.034;18.576;2023-04-16T13:03:36;10.11;86.78
70928;SHT31;58587;53.034;18.576;2023-04-16T13:06:02;10.13;86.34
70928;SHT31;58587;53.034;18.576;2023-04-16T13:08:28;10.11;86.36
70928;SHT31;58587;53.034;18.576;2023-04-16T13:10:53;10.17;86.52
70928;SHT31;58587;53.034;18.576;2023-04-16T13:13:19;10.16;86.54
70928;SHT31;58587;53.034;18.576;2023-04-16T13:15:45;10.17;86.17
70928;SHT31;58587;53.034;18.576;2023-04-16T13:18:10;10.16;86.23
70928;SHT31;58587;53.034;18.576;2023-04-16T13:20:36;10.14;86.18
70928;SHT31;58587;53.034;18.576;2023-04-16T13:23:01;10.11;86.28
70928;SHT31;58587;53.034;18.576;2023-04-16T13:25:29;10.11;86.01
70928;SHT31;58587;53.034;18.576;2023-04-16T13:27:55;10.14;86.56
70928;SHT31;58587;53.034;18.576;2023-04-16T13:30:20;10.14;86.68
70928;SHT31;58587;53.034;18.576;2023-04-16T13:32:46;10.10;86.36
70928;SHT31;58587;53.034;18.576;2023-04-16T13:35:11;10.11;86.46
70928;SHT31;58587;53.034;18.576;2023-04-16T13:37:36;10.09;86.48
70928;SHT31;58587;53.034;18.576;2023-04-16T13:40:02;10.04;86.35
70928;SHT31;58587;53.034;18.576;2023-04-16T13:42:27;10.03;86.82
70928;SHT31;58587;53.034;18.576;2023-04-16T13:44:52;10.09;87.12
70928;SHT31;58587;53.034;18.576;2023-04-16T13:47:19;10.03;86.74
70928;SHT31;58587;53.034;18.576;2023-04-16T13:49:44;9.96;86.70
70928;SHT31;58587;53.034;18.576;2023-04-16T13:52:10;9.90;86.90
70928;SHT31;58587;53.034;18.576;2023-04-16T13:54:35;9.90;86.91
70928;SHT31;58587;53.034;18.576;2023-04-16T13:57:01;9.87;86.76
70928;SHT31;58587;53.034;18.576;2023-04-16T13:59:26;9.90;87.12
70928;SHT31;58587;53.034;18.576;2023-04-16T14:01:52;9.94;87.20
70928;SHT31;58587;53.034;18.576;2023-04-16T14:04:17;9.89;86.96
70928;SHT31;58587;53.034;18.576;2023-04-16T14:06:42;9.96;87.14
70928;SHT31;58587;53.034;18.576;2023-04-16T14:09:07;9.99;87.18
70928;SHT31;58587;53.034;18.576;2023-04-16T14:11:35;9.97;86.95
70928;SHT31;58587;53.034;18.576;2023-04-16T14:14:00;10.02;87.09
70928;SHT31;58587;53.034;18.576;2023-04-16T14:16:26;10.03;86.97
70928;SHT31;58587;53.034;18.576;2023-04-16T14:18:51;10.00;86.74
70928;SHT31;58587;53.034;18.576;2023-04-16T14:21:17;10.00;86.99
70928;SHT31;58587;53.034;18.576;2023-04-16T14:23:42;10.03;86.60
70928;SHT31;58587;53.034;18.576;2023-04-16T14:26:07;10.02;86.94
70928;SHT31;58587;53.034;18.576;2023-04-16T14:28:32;10.04;86.54
70928;SHT31;58587;53.034;18.576;2023-04-16T14:30:59;10.07;86.68
70928;SHT31;58587;53.034;18.576;2023-04-16T14:33:24;10.03;86.57
70928;SHT31;58587;53.034;18.576;2023-04-16T14:35:50;10.06;86.69
70928;SHT31;58587;53.034;18.576;2023-04-16T14:38:16;10.06;86.57
70928;SHT31;58587;53.034;18.576;2023-04-16T14:40:41;10.03;86.59
70928;SHT31;58587;53.034;18.576;2023-04-16T14:43:06;9.97;86.49
70928;SHT31;58587;53.034;18.576;2023-04-16T14:45:31;10.00;86.80
70928;SHT31;58587;53.034;18.576;2023-04-16T14:47:57;10.00;86.50
70928;SHT31;58587;53.034;18.576;2023-04-16T14:50:22;10.00;86.32
70928;SHT31;58587;53.034;18.576;2023-04-16T14:52:47;9.97;86.25
70928;SHT31;58587;53.034;18.576;2023-04-16T14:55:13;9.99;86.38
70928;SHT31;58587;53.034;18.576;2023-04-16T14:57:38;10.00;86.36
70928;SHT31;58587;53.034;18.576;2023-04-16T15:00:06;10.06;86.40
70928;SHT31;58587;53.034;18.576;2023-04-16T15:02:33;10.07;86.60
70928;SHT31;58587;53.034;18.576;2023-04-16T15:04:59;10.09;86.56
70928;SHT31;58587;53.034;18.576;2023-04-16T15:07:25;10.10;86.55
70928;SHT31;58587;53.034;18.576;2023-04-16T15:09:50;10.11;86.13
70928;SHT31;58587;53.034;18.576;2023-04-16T15:12:15;10.10;86.67
70928;SHT31;58587;53.034;18.576;2023-04-16T15:14:41;10.13;86.22
70928;SHT31;58587;53.034;18.576;2023-04-16T15:17:07;10.16;86.33
70928;SHT31;58587;53.034;18.576;2023-04-16T15:19:33;10.14;86.38
70928;SHT31;58587;53.034;18.576;2023-04-16T15:21:58;10.14;86.26
70928;SHT31;58587;53.034;18.576;2023-04-16T15:24:23;10.16;86.28
70928;SHT31;58587;53.034;18.576;2023-04-16T15:26:49;10.13;86.12
70928;SHT31;58587;53.034;18.576;2023-04-16T15:29:14;10.11;86.59
70928;SHT31;58587;53.034;18.576;2023-04-16T15:31:40;10.13;86.36
70928;SHT31;58587;53.034;18.576;2023-04-16T15:34:05;10.13;86.35
70928;SHT31;58587;53.034;18.576;2023-04-16T15:36:30;10.13;86.93
70928;SHT31;58587;53.034;18.576;2023-04-16T15:38:56;10.11;86.54
70928;SHT31;58587;53.034;18.576;2023-04-16T15:41:22;10.11;86.45
70928;SHT31;58587;53.034;18.576;2023-04-16T15:43:47;10.13;86.63
70928;SHT31;58587;53.034;18.576;2023-04-16T15:46:12;10.10;86.46
70928;SHT31;58587;53.034;18.576;2023-04-16T15:48:39;10.06;86.36
70928;SHT31;58587;53.034;18.576;2023-04-16T15:51:04;10.09;86.54
70928;SHT31;58587;53.034;18.576;2023-04-16T15:53:30;10.07;86.64
70928;SHT31;58587;53.034;18.576;2023-04-16T15:55:59;10.06;86.48
70928;SHT31;58587;53.034;18.576;2023-04-16T15:58:31;10.03;86.49
70928;SHT31;58587;53.034;18.576;2023-04-16T16:01:01;10.03;86.51
70928;SHT31;58587;53.034;18.576;2023-04-16T16:03:27;9.99;86.43
70928;SHT31;58587;53.034;18.576;2023-04-16T16:05:53;9.97;86.67
70928;SHT31;58587;53.034;18.576;2023-04-16T16:08:18;9.96;86.78
70928;SHT31;58587;53.034;18.576;2023-04-16T16:10:44;9.94;86.62
70928;SHT31;58587;53.034;18.576;2023-04-16T16:13:09;9.86;86.43
70928;SHT31;58587;53.034;18.576;2023-04-16T16:15:40;9.85;86.57
70928;SHT31;58587;53.034;18.576;2023-04-16T16:18:05;9.78;86.75
70928;SHT31;58587;53.034;18.576;2023-04-16T16:20:31;9.70;87.17
70928;SHT31;58587;53.034;18.576;2023-04-16T16:22:56;9.70;87.46
70928;SHT31;58587;53.034;18.576;2023-04-16T16:25:22;9.65;87.45
70928;SHT31;58587;53.034;18.576;2023-04-16T16:27:47;9.62;87.77
70928;SHT31;58587;53.034;18.576;2023-04-16T16:30:13;9.56;87.79
70928;SHT31;58587;53.034;18.576;2023-04-16T16:32:38;9.55;87.65
70928;SHT31;58587;53.034;18.576;2023-04-16T16:35:08;9.52;87.47
70928;SHT31;58587;53.034;18.576;2023-04-16T16:37:35;9.49;87.69
70928;SHT31;58587;53.034;18.576;2023-04-16T16:40:00;9.48;87.71
70928;SHT31;58587;53.034;18.576;2023-04-16T16:42:26;9.46;87.59
70928;SHT31;58587;53.034;18.576;2023-04-16T16:44:51;9.48;87.57
70928;SHT31;58587;53.034;18.576;2023-04-16T16:47:16;9.45;87.02
70928;SHT31;58587;53.034;18.576;2023-04-16T16:49:42;9.43;87.05
70928;SHT31;58587;53.034;18.576;2023-04-16T16:52:08;9.36;86.95
70928;SHT31;58587;53.034;18.576;2023-04-16T16:54:33;9.42;86.79
70928;SHT31;58587;53.034;18.576;2023-04-16T16:56:58;9.38;86.81
70928;SHT31;58587;53.034;18.576;2023-04-16T16:59:24;9.31;87.01
70928;SHT31;58587;53.034;18.576;2023-04-16T17:01:49;9.36;86.68
70928;SHT31;58587;53.034;18.576;2023-04-16T17:04:14;9.32;86.57
70928;SHT31;58587;53.034;18.576;2023-04-16T17:06:40;9.34;86.78
70928;SHT31;58587;53.034;18.576;2023-04-16T17:09:05;9.35;86.44
70928;SHT31;58587;53.034;18.576;2023-04-16T17:11:31;9.35;86.75
70928;SHT31;58587;53.034;18.576;2023-04-16T17:13:56;9.35;86.25
70928;SHT31;58587;53.034;18.576;2023-04-16T17:16:22;9.29;86.42
70928;SHT31;58587;53.034;18.576;2023-04-16T17:18:48;9.29;86.47
70928;SHT31;58587;53.034;18.576;2023-04-16T17:21:13;9.32;86.44
70928;SHT31;58587;53.034;18.576;2023-04-16T17:23:38;9.31;86.28
70928;SHT31;58587;53.034;18.576;2023-04-16T17:26:04;9.28;86.15
70928;SHT31;58587;53.034;18.576;2023-04-16T17:28:29;9.27;86.22
70928;SHT31;58587;53.034;18.576;2023-04-16T17:30:55;9.25;86.34
70928;SHT31;58587;53.034;18.576;2023-04-16T17:33:21;9.27;86.42
70928;SHT31;58587;53.034;18.576;2023-04-16T17:35:46;9.25;86.25
70928;SHT31;58587;53.034;18.576;2023-04-16T17:38:11;9.25;86.49
70928;SHT31;58587;53.034;18.576;2023-04-16T17:40:37;9.24;86.44
70928;SHT31;58587;53.034;18.576;2023-04-16T17:43:02;9.21;86.46
70928;SHT31;58587;53.034;18.576;2023-04-16T17:45:28;9.28;86.78
70928;SHT31;58587;53.034;18.576;2023-04-16T17:47:53;9.31;86.93
70928;SHT31;58587;53.034;18.576;2023-04-16T17:50:18;9.28;86.36
70928;SHT31;58587;53.034;18.576;2023-04-16T17:52:44;9.39;86.86
70928;SHT31;58587;53.034;18.576;2023-04-16T17:55:11;9.32;86.41
70928;SHT31;58587;53.034;18.576;2023-04-16T17:57:36;9.31;86.29
70928;SHT31;58587;53.034;18.576;2023-04-16T18:00:02;9.29;85.92
70928;SHT31;58587;53.034;18.576;2023-04-16T18:02:30;9.28;86.13
70928;SHT31;58587;53.034;18.576;2023-04-16T18:04:55;9.24;86.03
70928;SHT31;58587;53.034;18.576;2023-04-16T18:07:21;9.22;86.16
70928;SHT31;58587;53.034;18.576;2023-04-16T18:09:46;9.22;86.29
70928;SHT31;58587;53.034;18.576;2023-04-16T18:12:11;9.17;86.46
70928;SHT31;58587;53.034;18.576;2023-04-16T18:14:37;9.18;86.32
70928;SHT31;58587;53.034;18.576;2023-04-16T18:17:04;9.14;86.37
70928;SHT31;58587;53.034;18.576;2023-04-16T18:19:30;9.12;86.14
70928;SHT31;58587;53.034;18.576;2023-04-16T18:21:59;9.12;86.40
70928;SHT31;58587;53.034;18.576;2023-04-16T18:24:24;9.08;86.24
70928;SHT31;58587;53.034;18.576;2023-04-16T18:26:50;9.08;86.36
70928;SHT31;58587;53.034;18.576;2023-04-16T18:29:15;9.10;86.45
70928;SHT31;58587;53.034;18.576;2023-04-16T18:31:40;9.07;86.19
70928;SHT31;58587;53.034;18.576;2023-04-16T18:34:06;9.08;86.46
70928;SHT31;58587;53.034;18.576;2023-04-16T18:36:31;9.08;86.25
70928;SHT31;58587;53.034;18.576;2023-04-16T18:38:57;9.07;86.29
70928;SHT31;58587;53.034;18.576;2023-04-16T18:41:23;9.03;86.04
70928;SHT31;58587;53.034;18.576;2023-04-16T18:43:48;9.01;86.10
70928;SHT31;58587;53.034;18.576;2023-04-16T18:46:14;9.00;86.02
70928;SHT31;58587;53.034;18.576;2023-04-16T18:48:39;8.98;86.21
70928;SHT31;58587;53.034;18.576;2023-04-16T18:51:05;9.01;86.49
70928;SHT31;58587;53.034;18.576;2023-04-16T18:53:31;9.01;86.44
70928;SHT31;58587;53.034;18.576;2023-04-16T18:55:56;8.98;86.53
70928;SHT31;58587;53.034;18.576;2023-04-16T18:58:21;9.01;86.93
70928;SHT31;58587;53.034;18.576;2023-04-16T19:00:51;8.98;86.81
70928;SHT31;58587;53.034;18.576;2023-04-16T19:03:16;8.97;86.60
70928;SHT31;58587;53.034;18.576;2023-04-16T19:05:42;8.95;87.05
70928;SHT31;58587;53.034;18.576;2023-04-16T19:08:07;8.95;86.97
70928;SHT31;58587;53.034;18.576;2023-04-16T19:10:32;8.98;87.15
70928;SHT31;58587;53.034;18.576;2023-04-16T19:12:58;9.00;87.27
70928;SHT31;58587;53.034;18.576;2023-04-16T19:15:23;8.95;87.32
70928;SHT31;58587;53.034;18.576;2023-04-16T19:17:49;8.94;87.67
70928;SHT31;58587;53.034;18.576;2023-04-16T19:20:14;8.92;87.46
70928;SHT31;58587;53.034;18.576;2023-04-16T19:22:40;8.92;87.81
70928;SHT31;58587;53.034;18.576;2023-04-16T19:25:06;8.89;87.90
70928;SHT31;58587;53.034;18.576;2023-04-16T19:27:32;8.92;87.96
70928;SHT31;58587;53.034;18.576;2023-04-16T19:29:57;8.91;88.04
70928;SHT31;58587;53.034;18.576;2023-04-16T19:32:23;8.91;87.77
70928;SHT31;58587;53.034;18.576;2023-04-16T19:34:48;8.91;87.99
70928;SHT31;58587;53.034;18.576;2023-04-16T19:37:13;8.85;87.73
70928;SHT31;58587;53.034;18.576;2023-04-16T19:39:39;8.88;87.78
70928;SHT31;58587;53.034;18.576;2023-04-16T19:42:04;8.85;87.91
70928;SHT31;58587;53.034;18.576;2023-04-16T19:44:30;8.83;87.57
70928;SHT31;58587;53.034;18.576;2023-04-16T19:46:56;8.84;87.66
70928;SHT31;58587;53.034;18.576;2023-04-16T19:49:21;8.83;87.56
70928;SHT31;58587;53.034;18.576;2023-04-16T19:51:49;8.80;87.75
70928;SHT31;58587;53.034;18.576;2023-04-16T19:54:14;8.83;87.64
70928;SHT31;58587;53.034;18.576;2023-04-16T19:56:40;8.78;87.76
70928;SHT31;58587;53.034;18.576;2023-04-16T19:59:05;8.78;87.61
70928;SHT31;58587;53.034;18.576;2023-04-16T20:01:31;8.80;87.66
70928;SHT31;58587;53.034;18.576;2023-04-16T20:03:56;8.78;87.53
70928;SHT31;58587;53.034;18.576;2023-04-16T20:06:21;8.74;87.28
70928;SHT31;58587;53.034;18.576;2023-04-16T20:08:48;8.78;87.67
70928;SHT31;58587;53.034;18.576;2023-04-16T20:11:13;8.77;87.55
70928;SHT31;58587;53.034;18.576;2023-04-16T20:13:38;8.76;87.19
70928;SHT31;58587;53.034;18.576;2023-04-16T20:16:04;8.77;87.26
70928;SHT31;58587;53.034;18.576;2023-04-16T20:18:29;8.77;87.24
70928;SHT31;58587;53.034;18.576;2023-04-16T20:20:55;8.74;87.30
70928;SHT31;58587;53.034;18.576;2023-04-16T20:23:20;8.73;87.25
70928;SHT31;58587;53.034;18.576;2023-04-16T20:25:46;8.71;87.29
70928;SHT31;58587;53.034;18.576;2023-04-16T20:28:11;8.71;87.56
70928;SHT31;58587;53.034;18.576;2023-04-16T20:30:38;8.68;87.70
70928;SHT31;58587;53.034;18.576;2023-04-16T20:33:05;8.73;87.86
70928;SHT31;58587;53.034;18.576;2023-04-16T20:35:31;8.70;87.74
70928;SHT31;58587;53.034;18.576;2023-04-16T20:37:56;8.64;87.90
70928;SHT31;58587;53.034;18.576;2023-04-16T20:40:21;8.59;87.97
70928;SHT31;58587;53.034;18.576;2023-04-16T20:42:48;8.63;87.95
70928;SHT31;58587;53.034;18.576;2023-04-16T20:45:19;8.60;88.09
70928;SHT31;58587;53.034;18.576;2023-04-16T20:47:44;8.59;88.02
70928;SHT31;58587;53.034;18.576;2023-04-16T20:50:10;8.54;88.16
70928;SHT31;58587;53.034;18.576;2023-04-16T20:52:36;8.53;88.31
70928;SHT31;58587;53.034;18.576;2023-04-16T20:55:01;8.52;88.34
70928;SHT31;58587;53.034;18.576;2023-04-16T20:57:27;8.52;88.49
70928;SHT31;58587;53.034;18.576;2023-04-16T20:59:54;8.52;88.37
70928;SHT31;58587;53.034;18.576;2023-04-16T21:02:20;8.47;88.46
70928;SHT31;58587;53.034;18.576;2023-04-16T21:04:45;8.49;88.47
70928;SHT31;58587;53.034;18.576;2023-04-16T21:07:11;8.46;88.43
70928;SHT31;58587;53.034;18.576;2023-04-16T21:09:36;8.46;88.56
70928;SHT31;58587;53.034;18.576;2023-04-16T21:12:01;8.47;88.53
70928;SHT31;58587;53.034;18.576;2023-04-16T21:14:27;8.43;88.54
70928;SHT31;58587;53.034;18.576;2023-04-16T21:16:52;8.43;88.68
70928;SHT31;58587;53.034;18.576;2023-04-16T21:19:18;8.39;88.61
70928;SHT31;58587;53.034;18.576;2023-04-16T21:21:44;8.39;88.55
70928;SHT31;58587;53.034;18.576;2023-04-16T21:24:09;8.40;88.77
70928;SHT31;58587;53.034;18.576;2023-04-16T21:26:34;8.43;88.79
70928;SHT31;58587;53.034;18.576;2023-04-16T21:29:00;8.37;88.73
70928;SHT31;58587;53.034;18.576;2023-04-16T21:31:25;8.36;88.65
70928;SHT31;58587;53.034;18.576;2023-04-16T21:33:51;8.40;88.87
70928;SHT31;58587;53.034;18.576;2023-04-16T21:36:16;8.36;88.74
70928;SHT31;58587;53.034;18.576;2023-04-16T21:38:42;8.34;88.78
70928;SHT31;58587;53.034;18.576;2023-04-16T21:41:10;8.37;88.74
70928;SHT31;58587;53.034;18.576;2023-04-16T21:43:35;8.36;88.74
70928;SHT31;58587;53.034;18.576;2023-04-16T21:46:00;8.36;88.65
70928;SHT31;58587;53.034;18.576;2023-04-16T21:48:26;8.32;88.76
70928;SHT31;58587;53.034;18.576;2023-04-16T21:50:56;8.34;88.54
70928;SHT31;58587;53.034;18.576;2023-04-16T21:53:23;8.33;88.56
70928;SHT31;58587;53.034;18.576;2023-04-16T21:55:48;8.34;88.84
70928;SHT31;58587;53.034;18.576;2023-04-16T21:58:13;8.29;88.50
70928;SHT31;58587;53.034;18.576;2023-04-16T22:00:39;8.26;88.81
70928;SHT31;58587;53.034;18.576;2023-04-16T22:03:05;8.29;88.66
70928;SHT31;58587;53.034;18.576;2023-04-16T22:05:30;8.32;88.64
70928;SHT31;58587;53.034;18.576;2023-04-16T22:07:57;8.30;88.51
70928;SHT31;58587;53.034;18.576;2023-04-16T22:10:22;8.23;88.50
70928;SHT31;58587;53.034;18.576;2023-04-16T22:12:47;8.26;88.12
70928;SHT31;58587;53.034;18.576;2023-04-16T22:15:13;8.19;87.89
70928;SHT31;58587;53.034;18.576;2023-04-16T22:17:39;8.19;88.01
70928;SHT31;58587;53.034;18.576;2023-04-16T22:20:06;8.16;88.19
70928;SHT31;58587;53.034;18.576;2023-04-16T22:22:39;8.10;88.40
70928;SHT31;58587;53.034;18.576;2023-04-16T22:25:07;8.10;88.50
70928;SHT31;58587;53.034;18.576;2023-04-16T22:27:33;8.12;88.36
70928;SHT31;58587;53.034;18.576;2023-04-16T22:29:59;8.14;88.71
70928;SHT31;58587;53.034;18.576;2023-04-16T22:32:25;8.09;88.18
70928;SHT31;58587;53.034;18.576;2023-04-16T22:34:51;8.07;88.54
70928;SHT31;58587;53.034;18.576;2023-04-16T22:37:16;8.05;88.38
70928;SHT31;58587;53.034;18.576;2023-04-16T22:39:41;8.10;88.47
70928;SHT31;58587;53.034;18.576;2023-04-16T22:42:07;8.06;88.31
70928;SHT31;58587;53.034;18.576;2023-04-16T22:44:32;8.01;88.14
70928;SHT31;58587;53.034;18.576;2023-04-16T22:46:57;7.99;88.08
70928;SHT31;58587;53.034;18.576;2023-04-16T22:49:23;7.99;87.88
70928;SHT31;58587;53.034;18.576;2023-04-16T22:51:48;7.98;88.00
70928;SHT31;58587;53.034;18.576;2023-04-16T22:54:14;7.95;88.03
70928;SHT31;58587;53.034;18.576;2023-04-16T22:56:39;7.98;88.29
70928;SHT31;58587;53.034;18.576;2023-04-16T22:59:05;7.98;88.50
70928;SHT31;58587;53.034;18.576;2023-04-16T23:01:32;7.92;88.51
70928;SHT31;58587;53.034;18.576;2023-04-16T23:03:57;7.95;88.19
70928;SHT31;58587;53.034;18.576;2023-04-16T23:06:23;7.96;88.36
70928;SHT31;58587;53.034;18.576;2023-04-16T23:08:48;7.96;88.59
70928;SHT31;58587;53.034;18.576;2023-04-16T23:11:13;7.93;88.39
70928;SHT31;58587;53.034;18.576;2023-04-16T23:13:39;7.95;88.62
70928;SHT31;58587;53.034;18.576;2023-04-16T23:16:05;7.93;88.31
70928;SHT31;58587;53.034;18.576;2023-04-16T23:18:30;7.93;88.52
70928;SHT31;58587;53.034;18.576;2023-04-16T23:20:56;7.95;88.48
70928;SHT31;58587;53.034;18.576;2023-04-16T23:23:21;7.89;88.39
70928;SHT31;58587;53.034;18.576;2023-04-16T23:25:46;7.89;88.52
70928;SHT31;58587;53.034;18.576;2023-04-16T23:28:12;7.88;88.49
70928;SHT31;58587;53.034;18.576;2023-04-16T23:30:37;7.91;88.32
70928;SHT31;58587;53.034;18.576;2023-04-16T23:33:02;7.86;88.71
70928;SHT31;58587;53.034;18.576;2023-04-16T23:35:28;7.86;88.55
70928;SHT31;58587;53.034;18.576;2023-04-16T23:37:54;7.82;88.79
70928;SHT31;58587;53.034;18.576;2023-04-16T23:40:19;7.82;88.77
70928;SHT31;58587;53.034;18.576;2023-04-16T23:42:44;7.81;88.87
70928;SHT31;58587;53.034;18.576;2023-04-16T23:45:10;7.79;88.89
70928;SHT31;58587;53.034;18.576;2023-04-16T23:47:35;7.74;89.01
70928;SHT31;58587;53.034;18.576;2023-04-16T23:50:01;7.75;88.74
70928;SHT31;58587;53.034;18.576;2023-04-16T23:52:26;7.67;88.82
70928;SHT31;58587;53.034;18.576;2023-04-16T23:54:51;7.68;89.17
70928;SHT31;58587;53.034;18.576;2023-04-16T23:57:17;7.64;89.04
70928;SHT31;58587;53.034;18.576;2023-04-16T23:59:42;7.67;89.07
